Weather at Manila International Container Terminal (MICT) Heliport

Public forecast

Using degrees Celsius for public forecast. Weather courtesy of forecast.io.

Closest aviation weather report (METAR) to Manila International Container Terminal (MICT) Heliport

Closest report is Ninoy Aquino International Airport, 6.5 nm (12.1 km) SE. Retrieved 2021/01/18 00:00 UTC (37 minutes ago):

RPLL 180000Z 05005KT 9999 SCT023 BKN100 26/22 Q1012 NOSIG RMK A2988

Closest aviation forecast (TAF) to Manila International Container Terminal (MICT) Heliport

Closest forecast is Ninoy Aquino International Airport, 6.5 nm (12.1 km) SE. Retrieved 2021-01-18 00:00 UTC (37 minutes ago):

TAF RPLL 172300Z 1800/1906 07007KT 9999 FEW025 BKN100 TX31/1806Z TN25/1821Z TEMPO 1800/1806 10014KT SCT023 BKN090 TEMPO 1806/1812 04016KT 8000 -RA SCT023 BKN090